Time;durP1;ratioP1;P1;durP2;ratioP2;P2;SDS_P1;SDS_P2;PMS_P1;PMS_P2;Temp;Humidity;BMP_temperature;BMP_pressure;BME280_temperature;BME280_humidity;BME280_pressure;Samples;Min_cycle;Max_cycle;Signal;HPM_P1;HPM_P2
2023/11/28 00:01:28;;;;;;;2.92;2.25;;;;;;;2.75;100.00;94574.75;5020460;28;20075;-72
2023/11/28 00:03:53;;;;;;;3.40;2.50;;;;;;;2.70;100.00;94580.47;5013936;28;20037;-71
2023/11/28 00:06:19;;;;;;;3.75;2.45;;;;;;;2.68;100.00;94585.47;5017435;28;20040;-71
2023/11/28 00:08:48;;;;;;;3.35;2.45;;;;;;;2.73;100.00;94587.09;5025609;28;20076;-70
2023/11/28 00:11:18;;;;;;;2.30;1.92;;;;;;;2.63;100.00;94586.59;5005066;28;20041;-71
2023/11/28 00:13:44;;;;;;;2.75;2.15;;;;;;;2.69;100.00;94581.63;5021688;28;20048;-70
2023/11/28 00:16:09;;;;;;;3.13;2.50;;;;;;;2.60;100.00;94581.91;5025968;28;20038;-70
2023/11/28 00:18:34;;;;;;;3.20;2.40;;;;;;;2.62;100.00;94574.22;5035891;28;20127;-71
2023/11/28 00:21:00;;;;;;;3.88;2.53;;;;;;;2.59;100.00;94566.06;5008657;28;20519;-70
2023/11/28 00:23:25;;;;;;;3.85;2.40;;;;;;;2.59;100.00;94558.75;5023777;28;20568;-71
2023/11/28 00:25:50;;;;;;;2.63;2.42;;;;;;;2.60;100.00;94559.53;5011505;28;20046;-71
2023/11/28 00:28:16;;;;;;;2.05;1.80;;;;;;;2.57;100.00;94561.00;5020476;28;20056;-70
2023/11/28 00:30:41;;;;;;;2.20;2.00;;;;;;;2.62;100.00;94549.88;5025352;28;20033;-71
2023/11/28 00:33:07;;;;;;;2.40;1.90;;;;;;;2.68;100.00;94550.34;5023355;28;20038;-72
2023/11/28 00:35:33;;;;;;;2.70;2.08;;;;;;;2.62;100.00;94547.19;5027842;28;20115;-70
2023/11/28 00:37:58;;;;;;;3.22;1.92;;;;;;;2.72;100.00;94561.19;5000391;28;20045;-72
2023/11/28 00:40:27;;;;;;;2.20;1.70;;;;;;;2.73;100.00;94551.94;5031596;28;20357;-71
2023/11/28 00:42:52;;;;;;;2.15;1.88;;;;;;;2.67;100.00;94554.97;5040472;28;20045;-72
2023/11/28 00:45:17;;;;;;;1.90;1.60;;;;;;;2.68;100.00;94548.44;5022092;28;20056;-72
2023/11/28 00:47:43;;;;;;;1.85;1.65;;;;;;;2.72;100.00;94550.38;5032101;28;20845;-72
2023/11/28 00:50:09;;;;;;;2.33;1.98;;;;;;;2.71;100.00;94555.00;4997635;28;20037;-71
2023/11/28 00:52:34;;;;;;;1.70;1.30;;;;;;;2.79;100.00;94553.97;5033380;28;20048;-70
2023/11/28 00:55:00;;;;;;;3.25;1.80;;;;;;;2.79;100.00;94545.84;5029807;28;20044;-70
2023/11/28 00:57:26;;;;;;;2.00;1.50;;;;;;;2.91;100.00;94549.44;5015583;28;20110;-71
2023/11/28 00:59:51;;;;;;;1.50;1.40;;;;;;;2.81;100.00;94548.97;5030118;28;20080;-71
2023/11/28 01:02:17;;;;;;;1.85;1.30;;;;;;;2.90;100.00;94550.59;5023724;28;20041;-71
2023/11/28 01:04:43;;;;;;;1.75;1.38;;;;;;;2.93;100.00;94547.91;5031747;28;20041;-71
2023/11/28 01:07:08;;;;;;;1.02;0.93;;;;;;;2.96;100.00;94547.19;5015768;28;20040;-72
2023/11/28 01:09:33;;;;;;;1.58;1.40;;;;;;;2.86;100.00;94547.84;5002555;28;20044;-72
2023/11/28 01:11:59;;;;;;;1.30;1.20;;;;;;;2.90;100.00;94551.38;5021711;28;20037;-72
2023/11/28 01:14:24;;;;;;;1.60;1.30;;;;;;;2.93;100.00;94539.81;5019293;28;20518;-72
2023/11/28 01:16:50;;;;;;;1.60;1.15;;;;;;;2.95;100.00;94544.84;5004842;28;20037;-71
2023/11/28 01:19:15;;;;;;;3.33;1.05;;;;;;;2.95;100.00;94532.09;5007091;28;20056;-72
2023/11/28 01:21:41;;;;;;;1.15;1.05;;;;;;;2.90;100.00;94534.34;5027194;28;20087;-72
2023/11/28 01:24:06;;;;;;;1.13;1.05;;;;;;;2.96;100.00;94522.84;5007727;28;20551;-72
2023/11/28 01:26:31;;;;;;;1.20;0.90;;;;;;;2.94;100.00;94546.78;5020893;28;20033;-72
2023/11/28 01:28:57;;;;;;;1.45;1.05;;;;;;;2.94;100.00;94543.31;5016676;28;20093;-72
2023/11/28 01:31:25;;;;;;;0.80;0.80;;;;;;;2.93;100.00;94549.84;5016053;28;20901;-72
2023/11/28 01:33:51;;;;;;;1.70;1.23;;;;;;;2.93;100.00;94537.09;5020033;28;20041;-72
2023/11/28 01:36:16;;;;;;;1.00;0.90;;;;;;;2.95;100.00;94540.22;5009919;28;20044;-72
2023/11/28 01:38:41;;;;;;;1.73;1.20;;;;;;;2.97;100.00;94529.03;5022130;28;20464;-72
2023/11/28 01:41:08;;;;;;;1.40;1.20;;;;;;;2.96;100.00;94532.91;5019058;28;20120;-73
2023/11/28 01:43:34;;;;;;;2.03;1.35;;;;;;;2.99;100.00;94530.22;5011914;28;20037;-72
2023/11/28 01:46:07;;;;;;;2.50;1.90;;;;;;;3.01;100.00;94537.97;5003299;28;20052;-71
2023/11/28 01:48:33;;;;;;;3.25;1.85;;;;;;;3.10;100.00;94521.41;5003050;28;20096;-71
2023/11/28 01:50:59;;;;;;;4.00;1.75;;;;;;;2.97;100.00;94527.13;5025302;28;20047;-72
2023/11/28 01:53:26;;;;;;;1.70;1.55;;;;;;;2.96;100.00;94535.59;5029580;28;20112;-71
2023/11/28 01:55:52;;;;;;;1.88;1.70;;;;;;;2.90;100.00;94539.75;5032187;28;20041;-73
2023/11/28 01:58:18;;;;;;;3.53;2.00;;;;;;;2.95;100.00;94534.03;5028335;28;20048;-72
2023/11/28 02:00:44;;;;;;;1.90;1.67;;;;;;;2.96;100.00;94532.91;5014214;28;20068;-73
2023/11/28 02:03:12;;;;;;;2.15;1.55;;;;;;;3.05;100.00;94527.97;5025141;28;20030;-72
2023/11/28 02:05:38;;;;;;;1.95;1.45;;;;;;;2.93;100.00;94529.00;5033945;28;20041;-72
2023/11/28 02:08:06;;;;;;;1.77;1.45;;;;;;;3.03;100.00;94527.56;5028170;28;20140;-72
2023/11/28 02:10:34;;;;;;;1.85;1.60;;;;;;;2.99;100.00;94530.22;5020653;28;20067;-70
2023/11/28 02:12:59;;;;;;;1.88;1.50;;;;;;;2.97;100.00;94526.31;5031785;28;20072;-71
2023/11/28 02:15:38;;;;;;;2.25;1.52;;;;;;;3.07;100.00;94522.97;5019385;28;20076;-71
2023/11/28 02:18:04;;;;;;;1.73;1.50;;;;;;;3.06;100.00;94526.78;5016050;28;20043;-72
2023/11/28 02:20:29;;;;;;;4.85;3.00;;;;;;;3.06;100.00;94515.97;5021562;28;20050;-73
2023/11/28 02:22:55;;;;;;;3.67;2.13;;;;;;;3.05;100.00;94519.84;5028061;28;20054;-72
2023/11/28 02:25:21;;;;;;;1.27;1.17;;;;;;;3.13;100.00;94502.53;5019002;28;20455;-72
2023/11/28 02:27:47;;;;;;;1.38;1.05;;;;;;;3.17;100.00;94514.19;5030053;28;20049;-69
2023/11/28 02:30:12;;;;;;;1.00;0.90;;;;;;;3.21;100.00;94511.50;5023812;28;20043;-71
2023/11/28 02:32:37;;;;;;;1.20;1.10;;;;;;;3.18;100.00;94502.19;5037705;28;20762;-71
2023/11/28 02:35:03;;;;;;;1.30;1.17;;;;;;;3.19;100.00;94503.75;5012534;28;20090;-73
2023/11/28 02:37:28;;;;;;;1.30;1.10;;;;;;;3.24;100.00;94498.00;5039379;28;20051;-71
2023/11/28 02:39:54;;;;;;;2.05;0.93;;;;;;;3.14;100.00;94489.78;5029618;28;20523;-71
2023/11/28 02:42:19;;;;;;;2.22;1.98;;;;;;;3.24;100.00;94491.81;5016028;28;20049;-71
2023/11/28 02:44:45;;;;;;;4.00;1.92;;;;;;;3.31;100.00;94488.38;5028169;28;20076;-72
2023/11/28 02:47:10;;;;;;;1.40;1.20;;;;;;;3.19;100.00;94484.81;5007728;28;20246;-71
2023/11/28 02:49:35;;;;;;;1.50;1.30;;;;;;;3.20;100.00;94475.53;5010620;28;20099;-72
2023/11/28 02:52:01;;;;;;;5.30;1.80;;;;;;;3.25;100.00;94471.72;5025929;28;20120;-71
2023/11/28 02:54:26;;;;;;;3.38;1.30;;;;;;;3.20;100.00;94469.38;5025601;28;20033;-72
2023/11/28 02:56:51;;;;;;;1.85;1.20;;;;;;;3.17;100.00;94473.59;5032976;28;20037;-71
2023/11/28 02:59:17;;;;;;;1.98;1.30;;;;;;;3.27;100.00;94471.34;5033374;28;20029;-71
2023/11/28 03:01:42;;;;;;;1.40;1.17;;;;;;;3.34;100.00;94461.38;5012844;28;20048;-72
2023/11/28 03:04:08;;;;;;;1.60;1.40;;;;;;;3.31;100.00;94450.50;5022059;28;20124;-71
2023/11/28 03:06:33;;;;;;;1.63;1.42;;;;;;;3.27;100.00;94455.91;5040657;28;20049;-71
2023/11/28 03:08:58;;;;;;;1.77;1.35;;;;;;;3.32;100.00;94455.56;5029791;28;20074;-72
2023/11/28 03:11:24;;;;;;;5.35;1.50;;;;;;;3.28;100.00;94459.38;5024281;28;20541;-71
2023/11/28 03:13:49;;;;;;;1.95;1.30;;;;;;;3.35;100.00;94437.78;5020847;28;20553;-70
2023/11/28 03:16:15;;;;;;;1.20;1.10;;;;;;;3.48;100.00;94446.41;5017661;28;20045;-74
2023/11/28 03:18:40;;;;;;;1.45;1.20;;;;;;;3.45;100.00;94448.69;5037841;28;20626;-73
2023/11/28 03:21:05;;;;;;;1.55;1.20;;;;;;;3.37;100.00;94446.31;5028245;28;20040;-73
2023/11/28 03:23:31;;;;;;;2.10;1.10;;;;;;;3.45;100.00;94445.22;5035030;28;20065;-74
2023/11/28 03:25:56;;;;;;;2.33;1.48;;;;;;;3.40;100.00;94434.72;5017842;28;20067;-73
2023/11/28 03:28:21;;;;;;;1.38;1.23;;;;;;;3.48;100.00;94432.88;5042813;28;20050;-72
2023/11/28 03:30:47;;;;;;;1.63;1.30;;;;;;;3.59;100.00;94431.00;5035909;28;20131;-72
2023/11/28 03:33:12;;;;;;;1.58;1.20;;;;;;;3.57;100.00;94431.38;5024377;28;20033;-72
2023/11/28 03:35:38;;;;;;;1.70;1.23;;;;;;;3.62;100.00;94435.69;5009156;28;20057;-73
2023/11/28 03:38:07;;;;;;;1.50;1.30;;;;;;;3.53;100.00;94427.09;5016122;28;20038;-71
2023/11/28 03:40:32;;;;;;;2.65;1.42;;;;;;;3.56;100.00;94424.41;5014515;28;20378;-71
2023/11/28 03:42:58;;;;;;;1.67;1.23;;;;;;;3.53;100.00;94418.97;5022446;28;20056;-72
2023/11/28 03:45:23;;;;;;;1.17;1.08;;;;;;;3.56;100.00;94418.22;5023492;28;20582;-72
2023/11/28 03:47:49;;;;;;;1.83;1.15;;;;;;;3.57;100.00;94428.66;5010186;28;20061;-72
2023/11/28 03:50:14;;;;;;;1.70;1.10;;;;;;;3.48;100.00;94412.00;5006994;28;20084;-71
2023/11/28 03:52:41;;;;;;;1.67;1.33;;;;;;;3.49;100.00;94408.13;5018136;28;20037;-73
2023/11/28 03:55:09;;;;;;;1.38;1.15;;;;;;;3.41;100.00;94415.41;5003708;28;20052;-72
2023/11/28 03:57:34;;;;;;;1.77;1.30;;;;;;;3.39;100.00;94416.97;5025885;28;20044;-72
2023/11/28 04:00:00;;;;;;;1.42;1.08;;;;;;;3.37;100.00;94411.91;5027115;28;20448;-72
2023/11/28 04:02:25;;;;;;;1.30;1.20;;;;;;;3.31;100.00;94413.41;5024982;28;20053;-72
2023/11/28 04:04:51;;;;;;;1.40;1.17;;;;;;;3.32;100.00;94419.59;5026899;28;20056;-72
2023/11/28 04:07:17;;;;;;;1.88;1.27;;;;;;;3.31;100.00;94410.69;5008098;28;20046;-73
2023/11/28 04:09:43;;;;;;;0.93;0.93;;;;;;;3.36;100.00;94415.00;5018854;28;20119;-72
2023/11/28 04:12:08;;;;;;;1.23;1.13;;;;;;;3.35;100.00;94405.31;5004828;28;20037;-72
2023/11/28 04:14:34;;;;;;;1.83;1.23;;;;;;;3.31;100.00;94409.94;5021407;28;20519;-71
2023/11/28 04:16:59;;;;;;;1.35;1.08;;;;;;;3.31;100.00;94415.34;5020771;28;20041;-71
2023/11/28 04:19:24;;;;;;;12.98;6.80;;;;;;;3.31;100.00;94408.00;5028137;28;20053;-71
2023/11/28 04:21:50;;;;;;;1.67;1.30;;;;;;;3.29;100.00;94396.78;5026853;28;20049;-71
2023/11/28 04:24:15;;;;;;;1.30;1.20;;;;;;;3.32;100.00;94400.66;4987932;28;20053;-71
2023/11/28 04:26:42;;;;;;;1.90;1.30;;;;;;;3.29;100.00;94396.00;5019334;28;20128;-71
2023/11/28 04:29:07;;;;;;;1.25;1.10;;;;;;;3.24;100.00;94383.59;5014853;28;20091;-72
2023/11/28 04:31:33;;;;;;;1.00;0.93;;;;;;;3.24;100.00;94380.88;5024940;28;20041;-71
2023/11/28 04:33:59;;;;;;;0.75;0.75;;;;;;;3.25;100.00;94388.63;5012665;28;20375;-70
2023/11/28 04:36:25;;;;;;;1.10;0.98;;;;;;;3.24;100.00;94376.28;5026452;28;20072;-71
2023/11/28 04:38:51;;;;;;;0.93;0.90;;;;;;;3.23;100.00;94376.66;5035033;28;20040;-73
2023/11/28 04:41:16;;;;;;;0.93;0.85;;;;;;;3.25;100.00;94388.63;5038964;28;20397;-72
2023/11/28 04:43:42;;;;;;;1.00;0.90;;;;;;;3.29;100.00;94388.66;5034504;28;20053;-71
2023/11/28 04:46:07;;;;;;;1.10;1.00;;;;;;;3.29;100.00;94390.59;5011585;28;20052;-71
2023/11/28 04:48:33;;;;;;;0.80;0.80;;;;;;;3.33;100.00;94386.78;5043086;28;20052;-71
2023/11/28 04:50:59;;;;;;;1.70;1.00;;;;;;;3.30;100.00;94387.50;5042804;28;20048;-71
2023/11/28 04:53:24;;;;;;;1.00;0.90;;;;;;;3.30;100.00;94386.75;5037364;28;20045;-71
2023/11/28 04:55:49;;;;;;;1.25;1.00;;;;;;;3.31;100.00;94391.00;5024561;28;20041;-71
2023/11/28 04:58:15;;;;;;;1.10;1.00;;;;;;;3.26;100.00;94389.44;5011478;28;20514;-71
2023/11/28 05:00:40;;;;;;;2.78;0.93;;;;;;;3.34;100.00;94387.53;5034598;28;20053;-71
2023/11/28 05:03:06;;;;;;;2.72;1.00;;;;;;;3.33;100.00;94385.97;5021761;28;20087;-71
2023/11/28 05:05:31;;;;;;;1.00;0.90;;;;;;;3.33;100.00;94396.78;5041681;28;20041;-72
2023/11/28 05:07:57;;;;;;;1.40;1.00;;;;;;;3.34;100.00;94391.00;5016536;28;20043;-71
2023/11/28 05:10:22;;;;;;;1.27;0.80;;;;;;;3.40;100.00;94396.84;5018466;28;20652;-71
2023/11/28 05:12:48;;;;;;;1.13;0.90;;;;;;;3.44;100.00;94394.97;5024506;28;20427;-72
2023/11/28 05:15:13;;;;;;;0.90;0.80;;;;;;;3.44;100.00;94403.06;5015924;28;20052;-70
2023/11/28 05:17:38;;;;;;;0.93;0.90;;;;;;;3.47;100.00;94390.72;5022956;28;20041;-72
2023/11/28 05:20:04;;;;;;;0.82;0.80;;;;;;;3.51;100.00;94394.22;5014934;28;20037;-75
2023/11/28 05:22:30;;;;;;;1.00;0.90;;;;;;;3.56;100.00;94399.28;5042408;28;20064;-72
2023/11/28 05:24:56;;;;;;;0.88;0.75;;;;;;;3.57;100.00;94403.53;5038485;28;20156;-71
2023/11/28 05:27:21;;;;;;;2.78;0.88;;;;;;;3.59;100.00;94406.66;5018681;28;20150;-72
2023/11/28 05:29:46;;;;;;;1.27;0.90;;;;;;;3.56;100.00;94410.88;5005237;28;20104;-71
2023/11/28 05:32:12;;;;;;;0.82;0.80;;;;;;;3.60;100.00;94406.28;5019438;28;20399;-70
2023/11/28 05:34:37;;;;;;;0.80;0.80;;;;;;;3.63;100.00;94408.19;5041781;28;20052;-70
2023/11/28 05:37:03;;;;;;;0.55;0.55;;;;;;;3.65;100.00;94410.53;5030539;28;20044;-74
2023/11/28 05:39:29;;;;;;;0.77;0.73;;;;;;;3.60;100.00;94408.19;5032468;28;20123;-71
2023/11/28 05:41:54;;;;;;;0.70;0.70;;;;;;;3.62;100.00;94422.13;5021181;28;20127;-71
2023/11/28 05:44:20;;;;;;;0.85;0.68;;;;;;;3.63;100.00;94420.97;5022873;28;20037;-71
2023/11/28 05:46:46;;;;;;;0.70;0.70;;;;;;;3.66;100.00;94417.53;5015139;28;20129;-72
2023/11/28 05:49:12;;;;;;;0.60;0.60;;;;;;;3.75;100.00;94412.53;5011129;28;20041;-71
2023/11/28 05:51:37;;;;;;;0.70;0.70;;;;;;;3.69;100.00;94414.06;5033893;28;20037;-71
2023/11/28 05:54:03;;;;;;;1.25;0.75;;;;;;;3.78;100.00;94406.38;5024730;28;20055;-73
2023/11/28 05:56:29;;;;;;;1.25;0.80;;;;;;;3.76;100.00;94430.34;5026953;28;20114;-72
2023/11/28 05:58:55;;;;;;;0.98;0.70;;;;;;;3.72;100.00;94426.81;5032514;28;20053;-72
2023/11/28 06:01:25;;;;;;;2.20;1.08;;;;;;;3.78;100.00;94428.03;5032314;28;20037;-73
2023/11/28 06:03:51;;;;;;;1.38;0.70;;;;;;;3.76;100.00;94430.34;5030766;28;20048;-72
2023/11/28 06:06:16;;;;;;;4.13;2.55;;;;;;;3.78;100.00;94436.16;5037441;28;20036;-71
2023/11/28 06:08:42;;;;;;;1.38;1.27;;;;;;;3.76;100.00;94438.47;5031053;28;20037;-72
2023/11/28 06:11:09;;;;;;;0.93;0.90;;;;;;;3.81;100.00;94434.63;5018116;28;20037;-71
2023/11/28 06:13:34;;;;;;;1.63;1.10;;;;;;;3.85;100.00;94448.94;5029230;28;20041;-73
2023/11/28 06:16:04;;;;;;;0.70;0.70;;;;;;;3.90;100.00;94442.41;5030645;28;20041;-72
2023/11/28 06:18:29;;;;;;;1.48;0.90;;;;;;;3.93;100.00;94450.56;5028325;28;20045;-72
2023/11/28 06:20:55;;;;;;;1.20;1.00;;;;;;;4.01;100.00;94451.34;5005542;28;20408;-73
2023/11/28 06:23:20;;;;;;;0.80;0.80;;;;;;;4.01;100.00;94454.84;5026588;28;20037;-73
2023/11/28 06:25:46;;;;;;;1.02;0.82;;;;;;;4.02;100.00;94447.50;5044398;28;20106;-70
2023/11/28 06:28:11;;;;;;;4.00;1.10;;;;;;;4.05;100.00;94441.31;5037931;28;20098;-71
2023/11/28 06:30:37;;;;;;;1.85;1.02;;;;;;;3.97;100.00;94461.41;5015857;28;20072;-73
2023/11/28 06:33:02;;;;;;;1.38;1.10;;;;;;;4.02;100.00;94456.41;5020417;28;20037;-68
2023/11/28 06:35:30;;;;;;;0.90;0.90;;;;;;;4.01;100.00;94444.00;5025259;28;20507;-71
2023/11/28 06:37:56;;;;;;;1.50;0.98;;;;;;;4.05;100.00;94456.78;5004188;28;20403;-71
2023/11/28 06:40:22;;;;;;;1.35;1.00;;;;;;;4.01;100.00;94454.84;5020769;28;20042;-72
2023/11/28 06:42:47;;;;;;;0.90;0.85;;;;;;;4.02;100.00;94448.28;5036877;28;20662;-71
2023/11/28 06:45:12;;;;;;;1.45;0.95;;;;;;;4.09;100.00;94452.97;5017480;28;20035;-71
2023/11/28 06:47:38;;;;;;;1.17;1.08;;;;;;;4.11;100.00;94452.59;5024339;28;20037;-71
2023/11/28 06:50:05;;;;;;;1.67;1.13;;;;;;;4.12;100.00;94452.19;5016884;28;20122;-70
2023/11/28 06:52:33;;;;;;;1.63;1.10;;;;;;;4.17;100.00;94467.31;5025545;28;20041;-73
2023/11/28 06:54:58;;;;;;;1.10;1.00;;;;;;;4.21;100.00;94473.50;5017794;28;20132;-72
2023/11/28 06:57:24;;;;;;;1.50;1.02;;;;;;;4.17;100.00;94468.06;4998828;28;20623;-72
2023/11/28 06:59:49;;;;;;;1.05;0.95;;;;;;;4.20;100.00;94477.41;5019755;28;20510;-73
2023/11/28 07:02:17;;;;;;;1.20;1.10;;;;;;;4.21;100.00;94468.91;4998128;28;20034;-69
2023/11/28 07:04:43;;;;;;;1.10;1.00;;;;;;;4.21;100.00;94478.94;5019081;28;20200;-69
2023/11/28 07:07:08;;;;;;;1.40;1.23;;;;;;;4.20;100.00;94486.28;5013640;28;20516;-68
2023/11/28 07:09:35;;;;;;;1.58;1.13;;;;;;;4.28;100.00;94484.38;5007676;28;20600;-67
2023/11/28 07:12:00;;;;;;;0.90;0.90;;;;;;;4.26;100.00;94488.66;5019207;28;20041;-69
2023/11/28 07:14:25;;;;;;;1.95;1.10;;;;;;;4.20;100.00;94485.53;5029283;28;20200;-69
2023/11/28 07:16:51;;;;;;;1.25;1.02;;;;;;;4.26;100.00;94494.84;5022894;28;20041;-68
2023/11/28 07:19:16;;;;;;;1.58;1.23;;;;;;;4.24;100.00;94501.81;5021159;28;20034;-69
2023/11/28 07:21:42;;;;;;;0.90;0.90;;;;;;;4.19;100.00;94508.34;5019438;28;20038;-69
2023/11/28 07:24:07;;;;;;;1.25;1.10;;;;;;;4.24;100.00;94509.94;5017546;28;20041;-69
2023/11/28 07:26:33;;;;;;;1.33;1.08;;;;;;;4.18;100.00;94514.94;5024305;28;20107;-68
2023/11/28 07:29:01;;;;;;;1.60;1.33;;;;;;;4.14;100.00;94511.41;5020223;28;20042;-69
2023/11/28 07:31:28;;;;;;;1.38;0.90;;;;;;;4.14;100.00;94517.63;5010806;28;20393;-69
2023/11/28 07:33:54;;;;;;;1.40;0.90;;;;;;;4.15;100.00;94510.25;5019300;28;20379;-68
2023/11/28 07:36:19;;;;;;;0.80;0.77;;;;;;;4.10;100.00;94521.47;5013303;28;20047;-68
2023/11/28 07:38:45;;;;;;;1.48;1.00;;;;;;;4.09;100.00;94525.31;5021063;28;20037;-69
2023/11/28 07:41:16;;;;;;;0.93;0.88;;;;;;;4.09;100.00;94525.31;5004977;28;20243;-68
2023/11/28 07:43:42;;;;;;;1.65;0.90;;;;;;;4.07;100.00;94519.50;5034822;28;20056;-68
2023/11/28 07:46:09;;;;;;;1.30;0.93;;;;;;;4.10;100.00;94537.72;5033874;28;20033;-68
2023/11/28 07:48:35;;;;;;;1.05;0.95;;;;;;;4.13;100.00;94540.44;5021384;28;20100;-68
2023/11/28 07:51:00;;;;;;;1.60;1.10;;;;;;;4.10;100.00;94530.34;5031899;28;20088;-68
2023/11/28 07:53:25;;;;;;;2.03;1.33;;;;;;;4.11;100.00;94545.47;5015917;28;20051;-69
2023/11/28 07:55:51;;;;;;;1.10;0.90;;;;;;;4.12;100.00;94538.88;5019376;28;20041;-69
2023/11/28 07:58:17;;;;;;;1.60;1.00;;;;;;;4.13;100.00;94545.84;5029852;28;20074;-70
2023/11/28 08:00:42;;;;;;;1.10;0.98;;;;;;;4.11;100.00;94550.88;5040123;28;20384;-70
2023/11/28 08:03:09;;;;;;;1.45;1.08;;;;;;;4.08;100.00;94548.91;5007509;28;20045;-69
2023/11/28 08:05:35;;;;;;;1.88;1.33;;;;;;;4.10;100.00;94557.44;5014791;28;20045;-69
2023/11/28 08:08:00;;;;;;;1.05;0.90;;;;;;;4.05;100.00;94568.63;5018562;28;20441;-70
2023/11/28 08:10:26;;;;;;;2.50;0.90;;;;;;;4.00;100.00;94569.00;5021546;28;20134;-69
2023/11/28 08:12:51;;;;;;;1.67;1.08;;;;;;;4.02;100.00;94570.16;5030939;28;20100;-68
2023/11/28 08:15:17;;;;;;;1.50;0.95;;;;;;;4.04;100.00;94577.94;5030907;28;20040;-69
2023/11/28 08:17:42;;;;;;;1.90;0.93;;;;;;;4.02;100.00;94578.28;5034912;28;20051;-69
2023/11/28 08:20:08;;;;;;;0.80;0.80;;;;;;;3.97;100.00;94596.84;5027223;28;20045;-68
2023/11/28 08:22:34;;;;;;;0.90;0.90;;;;;;;3.97;100.00;94589.47;5042124;28;20131;-67
2023/11/28 08:25:00;;;;;;;2.00;1.15;;;;;;;3.83;100.00;94590.16;5043161;28;20140;-68
2023/11/28 08:27:26;;;;;;;1.10;0.93;;;;;;;3.80;100.00;94590.13;5037946;28;20697;-68
2023/11/28 08:29:52;;;;;;;1.67;1.20;;;;;;;3.69;100.00;94600.88;5043983;28;20143;-68
2023/11/28 08:32:18;;;;;;;3.88;1.00;;;;;;;3.64;100.00;94599.28;5036930;28;20618;-68
2023/11/28 08:34:44;;;;;;;1.45;1.00;;;;;;;3.66;100.00;94615.13;5042373;28;20523;-68
2023/11/28 08:37:09;;;;;;;2.47;1.40;;;;;;;3.67;100.00;94622.09;5037241;28;20045;-68
2023/11/28 08:39:35;;;;;;;1.98;1.30;;;;;;;3.59;100.00;94629.38;5037728;28;20475;-68
2023/11/28 08:42:00;;;;;;;2.95;1.20;;;;;;;3.62;100.00;94636.00;5042376;28;20040;-68
2023/11/28 08:44:25;;;;;;;4.88;2.42;;;;;;;3.67;100.00;94645.69;5037488;28;20372;-68
2023/11/28 08:46:51;;;;;;;1.38;1.20;;;;;;;3.57;100.00;94650.63;5047831;28;20375;-68
2023/11/28 08:49:17;;;;;;;1.50;1.30;;;;;;;3.59;100.00;94653.75;5034749;28;20064;-68
2023/11/28 08:51:43;;;;;;;2.70;1.30;;;;;;;3.50;100.00;94661.38;5038413;28;20564;-68
2023/11/28 08:54:08;;;;;;;1.83;1.48;;;;;;;3.49;100.00;94667.16;5037679;28;20064;-67
2023/11/28 08:56:34;;;;;;;1.25;1.15;;;;;;;3.51;100.00;94662.94;5042201;28;20041;-68
2023/11/28 08:58:59;;;;;;;1.20;1.10;;;;;;;3.55;100.00;94682.72;5031028;28;20081;-68
2023/11/28 09:01:25;;;;;;;1.50;1.20;;;;;;;3.53;100.00;94690.44;5035322;28;20056;-68
2023/11/28 09:03:50;;;;;;;2.67;0.95;;;;;;;3.51;100.00;94691.94;5036231;28;20531;-68
2023/11/28 09:06:16;;;;;;;1.00;0.90;;;;;;;3.44;100.00;94703.47;5026050;28;20037;-68
2023/11/28 09:08:42;;;;;;;1.00;0.90;;;;;;;3.41;100.00;94696.84;5037182;28;20180;-68
2023/11/28 09:11:08;;;;;;;0.80;0.80;;;;;;;3.40;100.00;94705.34;5037820;28;20407;-68
2023/11/28 09:13:33;;;;;;;0.90;0.70;;;;;;;3.45;100.00;94702.31;5035268;28;20048;-69
2023/11/28 09:16:02;;;;;;;1.13;0.90;;;;;;;3.58;100.00;94714.47;5043422;28;20488;-69
2023/11/28 09:18:28;;;;;;;0.90;0.80;;;;;;;3.77;100.00;94720.84;5038613;28;20048;-69
2023/11/28 09:20:53;;;;;;;1.55;0.90;;;;;;;3.83;100.00;94728.28;5041150;28;20051;-70
2023/11/28 09:23:19;;;;;;;1.23;0.98;;;;;;;3.88;100.00;94737.19;5034440;28;20090;-68
2023/11/28 09:25:44;;;;;;;1.30;1.00;;;;;;;3.97;100.00;94748.50;5041784;28;20033;-69
2023/11/28 09:28:09;;;;;;;1.90;1.27;;;;;;;3.95;100.00;94751.59;5018763;28;20156;-68
2023/11/28 09:30:35;;;;;;;1.98;1.13;;;;;;;4.04;100.00;94761.34;5042564;28;20138;-69
2023/11/28 09:33:00;;;;;;;1.05;0.95;;;;;;;4.13;100.00;94768.03;5022802;28;20033;-69
2023/11/28 09:35:26;;;;;;;3.20;1.00;;;;;;;3.83;100.00;94777.00;5035871;28;20044;-69
2023/11/28 09:37:51;;;;;;;1.13;0.90;;;;;;;3.60;100.00;94771.72;5025086;28;20055;-68
2023/11/28 09:40:17;;;;;;;1.20;0.90;;;;;;;3.40;100.00;94776.50;5018262;28;20115;-69
2023/11/28 09:42:43;;;;;;;1.50;0.90;;;;;;;3.45;100.00;94780.78;5040601;28;20118;-69
2023/11/28 09:45:09;;;;;;;0.77;0.77;;;;;;;3.59;100.00;94797.22;5026726;28;20113;-68
2023/11/28 09:47:36;;;;;;;1.10;0.80;;;;;;;3.56;100.00;94797.16;5039921;28;20482;-68
2023/11/28 09:50:09;;;;;;;0.98;0.93;;;;;;;3.68;100.00;94805.06;5034363;28;20059;-68
2023/11/28 09:52:35;;;;;;;0.90;0.90;;;;;;;3.67;100.00;94810.84;5040104;28;20047;-68
2023/11/28 09:55:03;;;;;;;1.60;0.80;;;;;;;3.77;100.00;94813.69;5040670;28;20063;-69
2023/11/28 09:57:35;;;;;;;2.75;1.30;;;;;;;3.72;100.00;94824.84;5038405;28;20068;-68
2023/11/28 10:00:02;;;;;;;1.20;0.80;;;;;;;3.90;100.00;94830.47;5040806;28;20687;-67
2023/11/28 10:02:30;;;;;;;0.85;0.80;;;;;;;3.98;100.00;94828.59;5006066;28;20045;-68
2023/11/28 10:04:55;;;;;;;1.58;1.02;;;;;;;3.97;100.00;94833.25;5038758;28;20106;-67
2023/11/28 10:07:26;;;;;;;1.88;0.90;;;;;;;4.01;100.00;94844.13;5034452;28;20498;-68
2023/11/28 10:09:51;;;;;;;1.00;0.90;;;;;;;3.96;100.00;94850.66;5032360;28;20413;-68
2023/11/28 10:12:17;;;;;;;1.10;1.00;;;;;;;3.72;100.00;94851.91;5024547;28;20081;-69
2023/11/28 10:14:46;;;;;;;1.15;0.80;;;;;;;3.67;100.00;94856.88;5033622;28;20454;-69
2023/11/28 10:17:12;;;;;;;5.05;3.85;;;;;;;3.59;100.00;94867.59;5036751;28;20052;-69
2023/11/28 10:19:38;;;;;;;1.25;1.02;;;;;;;3.67;100.00;94871.19;5039649;28;20045;-67
2023/11/28 10:22:06;;;;;;;1.30;1.20;;;;;;;3.41;100.00;94880.09;5037638;28;20039;-68
2023/11/28 10:24:33;;;;;;;0.77;0.77;;;;;;;3.38;100.00;94875.41;5039575;28;20055;-69
2023/11/28 10:26:59;;;;;;;1.10;1.00;;;;;;;3.32;100.00;94893.13;5040286;28;20033;-68
2023/11/28 10:29:28;;;;;;;1.10;1.00;;;;;;;3.26;100.00;94892.66;5035611;28;20041;-69
2023/11/28 10:31:53;;;;;;;1.15;1.05;;;;;;;3.35;100.00;94900.50;5039608;28;20040;-68
2023/11/28 10:34:18;;;;;;;1.23;1.13;;;;;;;3.44;100.00;94909.16;5026868;28;20043;-68
2023/11/28 10:36:44;;;;;;;1.63;1.20;;;;;;;3.29;100.00;94910.06;5033044;28;20041;-68
2023/11/28 10:39:12;;;;;;;1.20;1.10;;;;;;;3.36;100.00;94926.41;5033843;28;20111;-69
2023/11/28 10:41:40;;;;;;;1.00;1.00;;;;;;;3.21;100.00;94920.78;5032444;28;20066;-68
2023/11/28 10:44:06;;;;;;;0.82;0.82;;;;;;;3.16;100.00;94923.03;5034752;28;20403;-69
2023/11/28 10:46:34;;;;;;;1.20;1.10;;;;;;;3.04;100.00;94930.19;5039819;28;20152;-69
2023/11/28 10:49:01;;;;;;;1.50;1.40;;;;;;;2.93;100.00;94931.91;5045239;28;20038;-68
2023/11/28 10:51:30;;;;;;;1.30;1.20;;;;;;;2.85;100.00;94946.47;5031670;28;20045;-68
2023/11/28 10:54:03;;;;;;;1.10;1.00;;;;;;;2.83;100.00;94954.94;5039397;28;20047;-68
2023/11/28 10:56:52;;;;;;;1.10;1.00;;;;;;;2.94;100.00;94959.75;5040162;28;20542;-68
2023/11/28 10:59:23;;;;;;;3.33;1.17;;;;;;;2.90;100.00;94964.28;5026209;28;20045;-69
2023/11/28 11:01:50;;;;;;;0.90;0.90;;;;;;;2.74;100.00;94972.50;5039954;28;20522;-67
2023/11/28 11:04:15;;;;;;;1.10;0.95;;;;;;;2.82;100.00;94993.13;5033180;28;20045;-69
2023/11/28 11:06:41;;;;;;;0.93;0.93;;;;;;;2.80;100.00;94996.19;5035552;28;20124;-69
2023/11/28 11:09:08;;;;;;;1.35;1.00;;;;;;;2.86;100.00;94999.38;5036514;28;20443;-68
2023/11/28 11:11:34;;;;;;;1.13;0.90;;;;;;;2.86;100.00;95012.91;5036115;28;20074;-68
2023/11/28 11:14:35;;;;;;;1.10;0.95;;;;;;;2.84;100.00;95010.56;5029899;28;20037;-69
2023/11/28 11:17:06;;;;;;;1.20;1.10;;;;;;;2.70;100.00;95013.00;5039866;28;20069;-68
2023/11/28 11:19:34;;;;;;;3.45;1.40;;;;;;;2.77;100.00;95009.66;5026570;28;20080;-70
2023/11/28 11:22:07;;;;;;;1.60;1.50;;;;;;;2.82;100.00;95020.19;5024546;28;20503;-68
2023/11/28 11:24:32;;;;;;;1.23;1.13;;;;;;;2.88;100.00;95018.72;5037708;28;20045;-69
2023/11/28 11:27:01;;;;;;;1.58;1.30;;;;;;;2.86;100.00;95018.31;5033186;28;20048;-67
2023/11/28 11:29:26;;;;;;;1.38;1.27;;;;;;;2.79;100.00;95029.78;5034129;28;20099;-68